createdAt,value
2019-05-23T00:01:12.450Z,8.30
2019-05-23T00:04:07.741Z,8.20
2019-05-23T00:06:58.908Z,8.10
2019-05-23T00:09:50.218Z,8.00
2019-05-23T00:12:55.715Z,7.90
2019-05-23T00:15:42.237Z,7.80
2019-05-23T00:18:15.288Z,7.80
2019-05-23T00:20:47.018Z,7.70
2019-05-23T00:23:18.819Z,7.60
2019-05-23T00:25:51.056Z,7.60
2019-05-23T00:28:23.143Z,7.50
2019-05-23T00:31:01.973Z,7.50
2019-05-23T00:33:35.002Z,7.40
2019-05-23T00:36:07.656Z,7.40
2019-05-23T00:38:40.049Z,7.30
2019-05-23T00:41:12.573Z,7.30
2019-05-23T00:43:44.913Z,7.20
2019-05-23T00:46:18.847Z,7.20
2019-05-23T00:48:51.086Z,7.20
2019-05-23T00:51:23.406Z,7.20
2019-05-23T00:53:55.103Z,7.10
2019-05-23T00:56:27.398Z,7.10
2019-05-23T00:58:59.190Z,7.10
2019-05-23T01:01:32.733Z,7.00
2019-05-23T01:04:05.267Z,7.00
2019-05-23T01:06:38.460Z,7.00
2019-05-23T01:09:10.789Z,7.00
2019-05-23T01:11:43.653Z,7.00
2019-05-23T01:14:15.197Z,7.00
2019-05-23T01:16:46.946Z,6.90
2019-05-23T01:19:19.234Z,6.90
2019-05-23T01:22:01.784Z,6.80
2019-05-23T01:24:45.548Z,6.80
2019-05-23T01:27:17.222Z,6.80
2019-05-23T01:29:52.341Z,6.80
2019-05-23T01:32:28.036Z,6.80
2019-05-23T01:34:59.804Z,6.80
2019-05-23T01:37:31.974Z,6.70
2019-05-23T01:40:04.237Z,6.70
2019-05-23T01:42:35.667Z,6.60
2019-05-23T01:45:09.267Z,6.50
2019-05-23T01:47:41.336Z,6.40
2019-05-23T01:50:14.117Z,6.30
2019-05-23T01:52:46.660Z,6.30
2019-05-23T01:55:18.376Z,6.20
2019-05-23T01:57:51.142Z,6.20
2019-05-23T02:00:26.741Z,6.10
2019-05-23T02:02:59.474Z,6.10
2019-05-23T02:05:31.907Z,6.00
2019-05-23T02:08:03.950Z,6.00
2019-05-23T02:10:36.392Z,6.00
2019-05-23T02:13:09.150Z,6.00
2019-05-23T02:15:40.690Z,5.90
2019-05-23T02:18:12.455Z,5.90
2019-05-23T02:20:44.590Z,5.90
2019-05-23T02:23:18.059Z,5.90
2019-05-23T02:25:50.020Z,5.80
2019-05-23T02:28:21.626Z,5.80
2019-05-23T02:30:54.231Z,5.80
2019-05-23T02:33:26.297Z,5.70
2019-05-23T02:35:58.783Z,5.70
2019-05-23T02:39:01.403Z,5.60
2019-05-23T02:41:51.515Z,5.60
2019-05-23T02:44:26.833Z,5.60
2019-05-23T02:47:03.951Z,5.50
2019-05-23T02:49:36.989Z,5.50
2019-05-23T02:52:34.884Z,5.50
2019-05-23T02:55:13.041Z,5.50
2019-05-23T02:57:47.907Z,5.40
2019-05-23T03:00:56.062Z,5.40
2019-05-23T03:03:35.306Z,5.40
2019-05-23T03:06:15.026Z,5.40
2019-05-23T03:08:48.738Z,5.40
2019-05-23T03:11:43.967Z,5.40
2019-05-23T03:14:19.181Z,5.40
2019-05-23T03:16:54.348Z,5.40
2019-05-23T03:19:45.266Z,5.40
2019-05-23T03:22:39.864Z,5.40
2019-05-23T03:26:15.539Z,5.40
2019-05-23T03:28:48.713Z,5.40
2019-05-23T03:31:33.427Z,5.40
2019-05-23T03:34:05.796Z,5.40
2019-05-23T03:36:39.149Z,5.40
2019-05-23T03:39:11.755Z,5.40
2019-05-23T03:41:43.988Z,5.40
2019-05-23T03:44:15.491Z,5.40
2019-05-23T03:46:49.516Z,5.50
2019-05-23T03:49:22.900Z,5.60
2019-05-23T03:51:55.515Z,5.60
2019-05-23T03:54:27.703Z,5.70
2019-05-23T03:57:00.135Z,5.80
2019-05-23T03:59:31.903Z,5.80
2019-05-23T04:02:05.208Z,5.90
2019-05-23T04:04:36.713Z,5.90
2019-05-23T04:07:08.914Z,6.00
2019-05-23T04:09:41.394Z,6.00
2019-05-23T04:12:12.917Z,6.10
2019-05-23T04:14:45.744Z,6.20
2019-05-23T04:17:17.213Z,6.20
2019-05-23T04:19:48.901Z,6.30
2019-05-23T04:22:20.368Z,6.40
2019-05-23T04:24:51.907Z,6.40
2019-05-23T04:27:23.769Z,6.50
2019-05-23T04:29:55.608Z,6.60
2019-05-23T04:32:26.993Z,6.70
2019-05-23T04:34:58.379Z,6.80
2019-05-23T04:37:30.612Z,7.00
2019-05-23T04:40:02.489Z,7.10
2019-05-23T04:42:33.967Z,7.20
2019-05-23T04:45:05.934Z,7.40
2019-05-23T04:47:37.351Z,7.50
2019-05-23T04:50:10.157Z,7.70
2019-05-23T04:57:27.117Z,7.90
2019-05-23T04:59:58.623Z,8.00
2019-05-23T05:02:30.835Z,8.10
2019-05-23T05:05:03.271Z,8.20
2019-05-23T05:07:34.942Z,8.30
2019-05-23T05:10:06.962Z,8.50
2019-05-23T05:12:38.416Z,8.60
2019-05-23T05:15:10.663Z,8.80
2019-05-23T05:17:42.374Z,8.90
2019-05-23T05:20:14.338Z,9.10
2019-05-23T05:22:46.171Z,9.20
2019-05-23T05:25:18.439Z,9.40
2019-05-23T05:27:50.037Z,9.50
2019-05-23T05:30:24.493Z,9.70
2019-05-23T05:32:55.905Z,9.80
2019-05-23T05:35:29.607Z,10.00
2019-05-23T05:38:01.035Z,10.30
2019-05-23T05:40:33.325Z,10.50
2019-05-23T05:43:05.435Z,10.80
2019-05-23T05:45:37.211Z,11.10
2019-05-23T05:48:08.935Z,11.20
2019-05-23T05:50:40.416Z,11.30
2019-05-23T05:53:12.488Z,11.40
2019-05-23T05:55:43.943Z,11.60
2019-05-23T05:58:15.442Z,11.80
2019-05-23T06:00:54.436Z,12.00
2019-05-23T06:03:25.903Z,12.30
2019-05-23T06:06:04.602Z,12.60
2019-05-23T06:08:37.951Z,12.80
2019-05-23T06:11:09.597Z,13.00
2019-05-23T06:13:41.477Z,13.30
2019-05-23T06:16:13.257Z,13.50
2019-05-23T06:18:44.925Z,13.70
2019-05-23T06:21:19.097Z,13.90
2019-05-23T06:23:51.003Z,14.10
2019-05-23T06:26:22.725Z,14.30
2019-05-23T06:28:54.104Z,14.50
2019-05-23T06:31:26.016Z,14.70
2019-05-23T06:33:57.611Z,15.00
2019-05-23T06:36:29.734Z,15.20
2019-05-23T06:39:01.994Z,15.30
2019-05-23T06:41:34.802Z,15.30
2019-05-23T06:44:08.767Z,15.40
2019-05-23T06:46:40.648Z,15.50
2019-05-23T06:49:12.439Z,15.70
2019-05-23T06:51:43.835Z,15.90
2019-05-23T06:54:15.395Z,16.10
2019-05-23T06:56:47.337Z,16.20
2019-05-23T06:59:19.229Z,16.40
2019-05-23T07:01:50.636Z,16.60
2019-05-23T07:04:22.531Z,16.80
2019-05-23T07:06:54.309Z,17.00
2019-05-23T07:09:25.762Z,17.30
2019-05-23T07:12:00.513Z,17.50
2019-05-23T07:14:32.169Z,17.60
2019-05-23T07:17:03.656Z,17.60
2019-05-23T07:19:35.234Z,17.60
2019-05-23T07:22:06.748Z,17.60
2019-05-23T07:24:56.476Z,17.70
2019-05-23T07:27:11.710Z,17.80
2019-05-23T07:29:43.068Z,17.90
2019-05-23T07:32:14.910Z,17.80
2019-05-23T07:34:46.227Z,17.80
2019-05-23T07:37:19.408Z,17.80
2019-05-23T07:39:50.790Z,18.00
2019-05-23T07:42:22.495Z,18.10
2019-05-23T07:44:56.692Z,18.20
2019-05-23T07:47:28.349Z,18.30
2019-05-23T07:49:59.720Z,18.40
2019-05-23T07:52:31.138Z,18.50
2019-05-23T07:55:07.522Z,18.70
2019-05-23T07:57:39.698Z,18.90
2019-05-23T08:00:18.353Z,19.10
2019-05-23T08:02:52.660Z,19.20
2019-05-23T08:05:24.554Z,19.20
2019-05-23T08:07:56.642Z,19.20
2019-05-23T08:10:33.605Z,19.40
2019-05-23T08:13:02.058Z,19.60
2019-05-23T08:15:34.537Z,19.70
2019-05-23T08:18:07.381Z,19.70
2019-05-23T08:20:38.855Z,19.70
2019-05-23T08:23:10.412Z,19.60
2019-05-23T08:25:41.767Z,19.60
2019-05-23T08:28:13.702Z,19.80
2019-05-23T08:30:45.145Z,19.90
2019-05-23T08:33:16.704Z,20.10
2019-05-23T08:35:48.408Z,20.30
2019-05-23T08:38:20.159Z,20.60
2019-05-23T08:40:53.869Z,20.90
2019-05-23T08:43:25.348Z,21.10
2019-05-23T08:45:57.686Z,21.20
2019-05-23T08:48:29.188Z,21.20
2019-05-23T08:51:00.584Z,21.30
2019-05-23T08:53:32.219Z,21.10
2019-05-23T08:56:17.335Z,20.90
2019-05-23T08:58:38.126Z,20.70
2019-05-23T09:01:09.731Z,20.60
2019-05-23T09:03:41.156Z,20.60
2019-05-23T09:06:13.185Z,20.60
2019-05-23T09:08:46.715Z,20.60
2019-05-23T09:11:19.729Z,21.00
2019-05-23T09:13:51.687Z,21.40
2019-05-23T09:16:24.049Z,21.80
2019-05-23T09:18:55.462Z,22.10
2019-05-23T09:21:26.964Z,22.20
2019-05-23T09:23:58.335Z,22.20
2019-05-23T09:26:30.226Z,22.10
2019-05-23T09:29:02.174Z,21.80
2019-05-23T09:31:33.792Z,21.40
2019-05-23T09:34:05.307Z,21.30
2019-05-23T09:36:37.309Z,21.20
2019-05-23T09:39:10.520Z,21.20
2019-05-23T09:41:41.876Z,21.30
2019-05-23T09:44:13.258Z,21.60
2019-05-23T09:46:44.621Z,22.00
2019-05-23T09:49:16.114Z,22.50
2019-05-23T09:51:50.142Z,22.80
2019-05-23T09:54:24.879Z,23.50
2019-05-23T09:56:56.309Z,23.90
2019-05-23T09:59:28.216Z,24.20
2019-05-23T10:02:01.327Z,24.40
2019-05-23T10:04:32.983Z,24.70
2019-05-23T10:07:04.541Z,24.80
2019-05-23T10:09:36.039Z,24.60
2019-05-23T10:12:07.489Z,24.40
2019-05-23T10:14:39.803Z,24.10
2019-05-23T10:17:11.182Z,23.90
2019-05-23T10:19:42.650Z,23.90
2019-05-23T10:22:14.591Z,24.20
2019-05-23T10:24:45.969Z,24.60
2019-05-23T10:27:18.944Z,25.00
2019-05-23T10:29:50.741Z,25.20
2019-05-23T10:32:22.328Z,25.40
2019-05-23T10:34:53.929Z,25.90
2019-05-23T10:37:26.388Z,26.30
2019-05-23T10:39:57.926Z,26.80
2019-05-23T10:42:29.551Z,27.00
2019-05-23T10:45:00.985Z,27.10
2019-05-23T10:47:32.491Z,26.70
2019-05-23T10:50:09.753Z,25.80
2019-05-23T10:52:40.687Z,25.10
2019-05-23T10:55:14.030Z,24.70
2019-05-23T10:57:45.377Z,24.30
2019-05-23T11:00:20.054Z,24.60
2019-05-23T11:02:51.706Z,25.00
2019-05-23T11:05:23.699Z,25.40
2019-05-23T11:07:55.249Z,26.00
2019-05-23T11:10:27.213Z,26.60
2019-05-23T11:12:58.651Z,26.80
2019-05-23T11:15:30.446Z,26.50
2019-05-23T11:18:02.134Z,25.90
2019-05-23T11:20:36.144Z,25.60
2019-05-23T11:23:08.212Z,25.30
2019-05-23T11:25:41.132Z,24.80
2019-05-23T11:28:12.674Z,24.30
2019-05-23T11:30:51.910Z,24.00
2019-05-23T11:33:24.127Z,23.80
2019-05-23T11:35:55.601Z,23.60
2019-05-23T11:38:27.020Z,23.90
2019-05-23T11:40:58.434Z,24.70
2019-05-23T11:43:29.812Z,25.70
2019-05-23T11:46:04.533Z,26.30
2019-05-23T11:48:36.041Z,26.30
2019-05-23T11:51:07.741Z,26.10
2019-05-23T11:53:39.401Z,26.00
2019-05-23T11:56:10.945Z,25.50
2019-05-23T11:58:45.001Z,25.40
2019-05-23T12:01:39.570Z,25.90
2019-05-23T12:04:13.920Z,26.00
2019-05-23T12:06:55.430Z,26.70
2019-05-23T12:09:23.928Z,27.30
2019-05-23T12:11:55.530Z,27.60
2019-05-23T12:14:26.969Z,27.30
2019-05-23T12:16:59.165Z,26.70
2019-05-23T12:19:30.948Z,26.20
2019-05-23T12:22:02.586Z,26.30
2019-05-23T12:24:35.440Z,27.30
2019-05-23T12:27:07.280Z,27.90
2019-05-23T12:29:38.761Z,28.70
2019-05-23T12:32:12.079Z,29.60
2019-05-23T12:34:44.456Z,30.30
2019-05-23T12:37:19.893Z,30.20
2019-05-23T12:39:48.929Z,29.90
2019-05-23T12:42:20.322Z,29.10
2019-05-23T12:44:51.680Z,28.60
2019-05-23T12:47:37.192Z,28.20
2019-05-23T12:50:12.266Z,27.70
2019-05-23T12:52:43.642Z,27.00
2019-05-23T12:55:15.800Z,26.90
2019-05-23T12:57:47.263Z,26.80
2019-05-23T13:00:34.728Z,27.50
2019-05-23T13:03:06.865Z,28.90
2019-05-23T13:05:38.910Z,29.70
2019-05-23T13:08:10.523Z,29.80
2019-05-23T13:10:41.946Z,29.90
2019-05-23T13:13:13.737Z,29.80
2019-05-23T13:15:45.438Z,29.90
2019-05-23T13:18:17.007Z,30.30
2019-05-23T13:20:48.896Z,30.90
2019-05-23T13:23:21.615Z,31.10
2019-05-23T13:25:53.114Z,31.00
2019-05-23T13:28:24.679Z,30.70
2019-05-23T13:30:56.118Z,30.60
2019-05-23T13:33:27.536Z,30.40
2019-05-23T13:35:58.972Z,30.50
2019-05-23T13:38:30.405Z,30.30
2019-05-23T13:41:01.839Z,29.80
2019-05-23T13:43:33.726Z,29.00
2019-05-23T13:46:05.690Z,28.70
2019-05-23T13:48:37.135Z,29.30
2019-05-23T13:51:08.597Z,30.40
2019-05-23T13:53:40.005Z,31.20
2019-05-23T13:56:11.389Z,31.70
2019-05-23T13:58:43.095Z,32.50
2019-05-23T14:01:14.464Z,32.80
2019-05-23T14:03:46.387Z,32.60
2019-05-23T14:06:17.834Z,31.70
2019-05-23T14:08:49.408Z,31.40
2019-05-23T14:11:20.834Z,31.00
2019-05-23T14:13:59.692Z,30.00
2019-05-23T14:16:28.339Z,29.00
2019-05-23T14:18:59.872Z,28.30
2019-05-23T14:21:34.721Z,27.90
2019-05-23T14:24:06.362Z,27.70
2019-05-23T14:26:50.758Z,27.60
2019-05-23T14:29:22.143Z,27.80
2019-05-23T14:32:01.811Z,28.70
2019-05-23T14:34:33.268Z,28.70
2019-05-23T14:37:20.280Z,28.90
2019-05-23T14:39:55.423Z,30.20
2019-05-23T14:42:42.327Z,31.20
2019-05-23T14:45:34.880Z,32.20
2019-05-23T14:48:24.180Z,32.90
2019-05-23T14:51:12.933Z,32.30
2019-05-23T14:53:47.637Z,31.10
2019-05-23T14:56:20.165Z,30.20
2019-05-23T14:58:51.803Z,29.70
2019-05-23T15:01:26.162Z,30.10
2019-05-23T15:03:57.683Z,31.20
2019-05-23T15:06:29.356Z,32.10
2019-05-23T15:09:01.104Z,32.90
2019-05-23T15:11:33.976Z,32.80
2019-05-23T15:14:05.959Z,31.70
2019-05-23T15:16:37.494Z,30.60
2019-05-23T15:19:09.007Z,29.40
2019-05-23T15:21:40.419Z,28.50
2019-05-23T15:24:11.894Z,27.70
2019-05-23T15:26:44.433Z,27.10
2019-05-23T15:29:15.949Z,26.50
2019-05-23T15:32:00.946Z,26.20
2019-05-23T15:34:20.652Z,26.00
2019-05-23T15:36:52.013Z,25.90
2019-05-23T15:39:23.521Z,25.90
2019-05-23T15:41:54.930Z,26.10
2019-05-23T15:44:29.470Z,26.60
2019-05-23T15:46:59.655Z,26.60
2019-05-23T15:49:31.371Z,26.20
2019-05-23T15:52:24.551Z,25.70
2019-05-23T15:55:23.826Z,25.30
2019-05-23T15:58:22.264Z,25.00
2019-05-23T16:01:08.724Z,25.00
2019-05-23T16:03:46.488Z,25.00
2019-05-23T16:06:19.330Z,24.80
2019-05-23T16:08:50.947Z,24.70
2019-05-23T16:11:22.485Z,24.90
2019-05-23T16:13:53.879Z,25.50
2019-05-23T16:16:25.961Z,26.30
2019-05-23T16:18:57.396Z,26.60
2019-05-23T16:21:30.748Z,27.00
2019-05-23T16:24:02.479Z,27.90
2019-05-23T16:26:34.083Z,28.90
2019-05-23T16:29:06.126Z,29.60
2019-05-23T16:31:37.591Z,30.10
2019-05-23T16:34:09.037Z,30.70
2019-05-23T16:36:40.575Z,31.10
2019-05-23T16:39:12.006Z,31.30
2019-05-23T16:41:43.409Z,31.50
2019-05-23T16:44:14.950Z,31.90
2019-05-23T16:46:46.351Z,32.10
2019-05-23T16:49:17.924Z,32.20
2019-05-23T16:51:49.351Z,31.70
2019-05-23T16:54:23.659Z,31.40
2019-05-23T16:57:05.071Z,31.60
2019-05-23T16:59:47.568Z,31.70
2019-05-23T17:02:28.889Z,31.20
2019-05-23T17:05:31.204Z,30.80
2019-05-23T17:08:27.591Z,30.20
2019-05-23T17:11:08.336Z,29.50
2019-05-23T17:13:49.640Z,29.40
2019-05-23T17:16:43.230Z,29.80
2019-05-23T17:19:42.722Z,30.30
2019-05-23T17:22:28.719Z,30.40
2019-05-23T17:25:20.212Z,30.40
2019-05-23T17:28:05.790Z,29.60
2019-05-23T17:30:44.821Z,28.80
2019-05-23T17:33:16.523Z,27.90
2019-05-23T17:35:48.037Z,27.10
2019-05-23T17:38:19.844Z,26.40
2019-05-23T17:40:51.494Z,25.80
2019-05-23T17:43:24.052Z,25.20
2019-05-23T17:45:55.549Z,24.80
2019-05-23T17:48:27.045Z,24.40
2019-05-23T17:50:58.659Z,24.00
2019-05-23T17:53:30.330Z,23.70
2019-05-23T17:56:02.151Z,23.40
2019-05-23T17:58:33.601Z,23.20
2019-05-23T18:01:06.346Z,22.90
2019-05-23T18:03:38.027Z,22.70
2019-05-23T18:06:09.869Z,22.40
2019-05-23T18:08:43.167Z,22.20
2019-05-23T18:11:15.642Z,22.00
2019-05-23T18:13:47.334Z,21.80
2019-05-23T18:16:19.200Z,21.50
2019-05-23T18:19:10.080Z,21.30
2019-05-23T18:21:42.178Z,21.10
2019-05-23T18:24:14.736Z,20.90
2019-05-23T18:26:46.612Z,20.70
2019-05-23T18:29:37.364Z,20.50
2019-05-23T18:32:14.179Z,20.20
2019-05-23T18:34:45.512Z,20.00
2019-05-23T18:37:16.905Z,19.80
2019-05-23T18:39:48.648Z,19.50
2019-05-23T18:42:20.155Z,19.30
2019-05-23T18:44:52.765Z,19.10
2019-05-23T18:47:32.663Z,18.90
2019-05-23T18:50:05.137Z,18.60
2019-05-23T18:52:37.107Z,18.40
2019-05-23T18:55:10.324Z,18.20
2019-05-23T18:57:42.111Z,18.00
2019-05-23T19:00:14.170Z,17.70
2019-05-23T19:02:45.812Z,17.60
2019-05-23T19:05:18.018Z,17.40
2019-05-23T19:07:49.503Z,17.10
2019-05-23T19:10:20.852Z,17.00
2019-05-23T19:12:52.305Z,16.80
2019-05-23T19:15:23.795Z,16.60
2019-05-23T19:17:55.259Z,16.40
2019-05-23T19:20:26.738Z,16.30
2019-05-23T19:22:58.360Z,16.10
2019-05-23T19:25:29.736Z,15.90
2019-05-23T19:28:02.117Z,15.80
2019-05-23T19:30:34.509Z,15.60
2019-05-23T19:33:07.383Z,15.50
2019-05-23T19:35:38.993Z,15.40
2019-05-23T19:38:10.547Z,15.20
2019-05-23T19:40:42.155Z,15.10
2019-05-23T19:43:15.005Z,14.90
2019-05-23T19:45:46.572Z,14.80
2019-05-23T19:48:18.558Z,14.70
2019-05-23T19:50:51.675Z,14.60
2019-05-23T19:53:23.068Z,14.50
2019-05-23T19:55:54.805Z,14.30
2019-05-23T19:58:26.380Z,14.20
2019-05-23T20:00:57.732Z,14.10
2019-05-23T20:03:32.599Z,14.00
2019-05-23T20:06:03.019Z,13.90
2019-05-23T20:08:34.565Z,13.80
2019-05-23T20:11:06.270Z,13.70
2019-05-23T20:13:37.671Z,13.60
2019-05-23T20:16:09.116Z,13.50
2019-05-23T20:18:40.654Z,13.40
2019-05-23T20:21:11.990Z,13.30
2019-05-23T20:23:43.590Z,13.20
2019-05-23T20:26:14.919Z,13.10
2019-05-23T20:28:46.397Z,13.10
2019-05-23T20:31:17.838Z,13.00
2019-05-23T20:33:49.712Z,12.90
2019-05-23T20:36:21.364Z,12.80
2019-05-23T20:38:52.718Z,12.70
2019-05-23T20:41:24.651Z,12.60
2019-05-23T20:43:55.963Z,12.60
2019-05-23T20:46:27.389Z,12.50
2019-05-23T20:48:58.749Z,12.40
2019-05-23T20:51:31.267Z,12.30
2019-05-23T20:54:02.683Z,12.20
2019-05-23T20:56:34.034Z,12.20
2019-05-23T20:59:06.007Z,12.10
2019-05-23T21:01:40.252Z,12.00
2019-05-23T21:04:11.631Z,12.00
2019-05-23T21:06:44.096Z,11.90
2019-05-23T21:09:16.230Z,11.80
2019-05-23T21:11:47.867Z,11.70
2019-05-23T21:14:19.430Z,11.70
2019-05-23T21:16:50.888Z,11.60
2019-05-23T21:19:22.554Z,11.50
2019-05-23T21:21:53.889Z,11.50
2019-05-23T21:24:25.278Z,11.40
2019-05-23T21:26:56.904Z,11.30
2019-05-23T21:29:28.264Z,11.30
2019-05-23T21:31:59.659Z,11.20
2019-05-23T21:34:31.097Z,11.20
2019-05-23T21:37:02.428Z,11.10
2019-05-23T21:39:34.062Z,11.10
2019-05-23T21:42:05.501Z,11.10
2019-05-23T21:44:36.970Z,11.00
2019-05-23T21:47:15.005Z,11.00
2019-05-23T21:49:46.695Z,10.90
2019-05-23T21:52:19.656Z,10.90
2019-05-23T21:54:51.046Z,10.90
2019-05-23T21:57:22.432Z,10.80
2019-05-23T21:59:53.887Z,10.80
2019-05-23T22:02:34.694Z,10.70
2019-05-23T22:05:15.646Z,10.60
2019-05-23T22:07:47.570Z,10.60
2019-05-23T22:10:19.325Z,10.50
2019-05-23T22:13:03.827Z,10.40
2019-05-23T22:15:43.891Z,10.40
2019-05-23T22:18:15.730Z,10.40
2019-05-23T22:20:47.085Z,10.30
2019-05-23T22:23:18.461Z,10.30
2019-05-23T22:25:49.942Z,10.20
2019-05-23T22:28:21.310Z,10.20
2019-05-23T22:30:53.141Z,10.10
2019-05-23T22:33:26.270Z,10.10
2019-05-23T22:35:59.209Z,10.10
2019-05-23T22:38:30.751Z,10.00
2019-05-23T22:41:02.099Z,9.90
2019-05-23T22:43:33.473Z,9.90
2019-05-23T22:46:05.859Z,9.90
2019-05-23T22:48:37.202Z,9.90
2019-05-23T22:51:08.543Z,9.80
2019-05-23T22:53:39.879Z,9.80
2019-05-23T22:56:11.278Z,9.70
2019-05-23T22:58:43.013Z,9.70
2019-05-23T23:01:15.421Z,9.60
2019-05-23T23:03:46.863Z,9.60
2019-05-23T23:06:18.485Z,9.60
2019-05-23T23:08:49.866Z,9.50
2019-05-23T23:11:21.293Z,9.50
2019-05-23T23:13:52.645Z,9.50
2019-05-23T23:16:23.994Z,9.40
2019-05-23T23:18:56.275Z,9.40
2019-05-23T23:21:27.635Z,9.30
2019-05-23T23:23:59.017Z,9.30
2019-05-23T23:26:30.340Z,9.30
2019-05-23T23:29:02.803Z,9.20
2019-05-23T23:31:34.146Z,9.20
2019-05-23T23:34:05.513Z,9.20
2019-05-23T23:36:36.864Z,9.10
2019-05-23T23:39:08.790Z,9.10
2019-05-23T23:41:40.222Z,9.10
2019-05-23T23:44:12.283Z,9.00
2019-05-23T23:47:01.255Z,9.00
2019-05-23T23:49:50.861Z,9.00
2019-05-23T23:52:39.576Z,8.90
2019-05-23T23:55:28.835Z,8.90
2019-05-23T23:57:59.228Z,8.80
